sensor_id;sensor_type;location;lat;lon;timestamp;P1;durP1;ratioP1;P2;durP2;ratioP2
9324;SDS011;4701;51.566;6.776;2023-08-06T05:14:02;7.87;;;4.37;;
9324;SDS011;4701;51.566;6.776;2023-08-06T05:17:04;5.37;;;4.23;;
9324;SDS011;4701;51.566;6.776;2023-08-06T05:20:06;6.40;;;4.47;;
9324;SDS011;4701;51.566;6.776;2023-08-06T05:23:08;4.67;;;3.87;;
9324;SDS011;4701;51.566;6.776;2023-08-06T05:26:10;4.13;;;3.60;;
9324;SDS011;4701;51.566;6.776;2023-08-06T05:29:13;4.60;;;4.20;;
9324;SDS011;4701;51.566;6.776;2023-08-06T05:32:14;5.77;;;3.70;;
9324;SDS011;4701;51.566;6.776;2023-08-06T05:35:16;5.27;;;4.00;;
9324;SDS011;4701;51.566;6.776;2023-08-06T05:38:18;4.57;;;3.93;;
9324;SDS011;4701;51.566;6.776;2023-08-06T05:41:19;7.47;;;4.30;;
9324;SDS011;4701;51.566;6.776;2023-08-06T05:44:23;4.47;;;4.07;;
9324;SDS011;4701;51.566;6.776;2023-08-06T05:47:24;4.60;;;4.20;;
9324;SDS011;4701;51.566;6.776;2023-08-06T05:50:26;6.03;;;4.00;;
9324;SDS011;4701;51.566;6.776;2023-08-06T05:53:28;5.33;;;4.63;;
9324;SDS011;4701;51.566;6.776;2023-08-06T05:56:29;5.50;;;4.63;;
9324;SDS011;4701;51.566;6.776;2023-08-06T05:59:32;5.30;;;4.40;;
9324;SDS011;4701;51.566;6.776;2023-08-06T06:02:34;5.23;;;4.43;;
9324;SDS011;4701;51.566;6.776;2023-08-06T06:05:37;5.20;;;4.70;;
9324;SDS011;4701;51.566;6.776;2023-08-06T06:08:39;5.40;;;3.97;;
9324;SDS011;4701;51.566;6.776;2023-08-06T06:11:43;5.37;;;4.80;;
9324;SDS011;4701;51.566;6.776;2023-08-06T06:14:46;5.03;;;4.37;;
9324;SDS011;4701;51.566;6.776;2023-08-06T06:17:48;5.10;;;4.60;;
9324;SDS011;4701;51.566;6.776;2023-08-06T06:20:49;5.80;;;4.00;;
9324;SDS011;4701;51.566;6.776;2023-08-06T06:23:51;5.90;;;3.97;;
9324;SDS011;4701;51.566;6.776;2023-08-06T06:26:53;5.07;;;3.60;;
9324;SDS011;4701;51.566;6.776;2023-08-06T06:29:56;4.47;;;3.93;;
9324;SDS011;4701;51.566;6.776;2023-08-06T06:32:57;4.93;;;4.30;;
9324;SDS011;4701;51.566;6.776;2023-08-06T06:35:59;4.40;;;4.00;;
9324;SDS011;4701;51.566;6.776;2023-08-06T06:39:03;7.87;;;3.80;;
9324;SDS011;4701;51.566;6.776;2023-08-06T06:42:04;5.17;;;3.97;;
9324;SDS011;4701;51.566;6.776;2023-08-06T06:45:09;5.37;;;4.00;;
9324;SDS011;4701;51.566;6.776;2023-08-06T06:48:10;6.00;;;4.07;;
9324;SDS011;4701;51.566;6.776;2023-08-06T06:51:12;5.07;;;3.80;;
9324;SDS011;4701;51.566;6.776;2023-08-06T06:54:14;4.80;;;4.30;;
9324;SDS011;4701;51.566;6.776;2023-08-06T06:57:15;4.70;;;3.87;;
9324;SDS011;4701;51.566;6.776;2023-08-06T07:00:19;4.03;;;3.60;;
9324;SDS011;4701;51.566;6.776;2023-08-06T07:03:20;4.00;;;3.70;;
9324;SDS011;4701;51.566;6.776;2023-08-06T07:06:22;3.50;;;3.20;;
9324;SDS011;4701;51.566;6.776;2023-08-06T07:09:24;4.87;;;3.27;;
9324;SDS011;4701;51.566;6.776;2023-08-06T07:12:25;3.33;;;3.03;;
9324;SDS011;4701;51.566;6.776;2023-08-06T07:15:28;4.83;;;3.70;;
9324;SDS011;4701;51.566;6.776;2023-08-06T07:18:30;4.67;;;3.10;;
9324;SDS011;4701;51.566;6.776;2023-08-06T07:21:34;5.63;;;3.03;;
9324;SDS011;4701;51.566;6.776;2023-08-06T07:24:36;3.20;;;2.90;;
9324;SDS011;4701;51.566;6.776;2023-08-06T07:27:38;3.30;;;3.00;;
9324;SDS011;4701;51.566;6.776;2023-08-06T07:30:41;4.90;;;3.20;;
9324;SDS011;4701;51.566;6.776;2023-08-06T07:33:44;3.53;;;3.23;;
9324;SDS011;4701;51.566;6.776;2023-08-06T07:36:46;4.37;;;2.87;;
9324;SDS011;4701;51.566;6.776;2023-08-06T07:39:47;3.63;;;3.00;;
9324;SDS011;4701;51.566;6.776;2023-08-06T07:42:49;3.20;;;2.90;;
9324;SDS011;4701;51.566;6.776;2023-08-06T07:45:52;3.07;;;2.80;;
9324;SDS011;4701;51.566;6.776;2023-08-06T07:48:54;5.00;;;3.70;;
9324;SDS011;4701;51.566;6.776;2023-08-06T07:51:55;5.10;;;4.60;;
9324;SDS011;4701;51.566;6.776;2023-08-06T07:54:57;6.13;;;4.20;;
9324;SDS011;4701;51.566;6.776;2023-08-06T07:58:00;5.97;;;4.60;;
9324;SDS011;4701;51.566;6.776;2023-08-06T08:01:03;6.90;;;6.10;;
9324;SDS011;4701;51.566;6.776;2023-08-06T08:04:07;5.10;;;4.50;;
9324;SDS011;4701;51.566;6.776;2023-08-06T08:07:09;6.23;;;4.97;;
9324;SDS011;4701;51.566;6.776;2023-08-06T08:10:12;4.63;;;4.13;;
9324;SDS011;4701;51.566;6.776;2023-08-06T08:13:13;8.27;;;6.73;;
9324;SDS011;4701;51.566;6.776;2023-08-06T08:16:16;10.77;;;7.30;;
9324;SDS011;4701;51.566;6.776;2023-08-06T08:19:18;7.47;;;6.50;;
9324;SDS011;4701;51.566;6.776;2023-08-06T08:22:20;12.97;;;8.87;;
9324;SDS011;4701;51.566;6.776;2023-08-06T08:25:21;8.87;;;7.03;;
9324;SDS011;4701;51.566;6.776;2023-08-06T08:28:23;9.50;;;6.60;;
9324;SDS011;4701;51.566;6.776;2023-08-06T08:31:27;8.23;;;6.63;;
9324;SDS011;4701;51.566;6.776;2023-08-06T08:34:29;7.33;;;6.53;;
9324;SDS011;4701;51.566;6.776;2023-08-06T08:37:31;7.37;;;6.37;;
9324;SDS011;4701;51.566;6.776;2023-08-06T08:40:33;8.83;;;6.87;;
9324;SDS011;4701;51.566;6.776;2023-08-06T08:43:40;6.60;;;6.00;;
9324;SDS011;4701;51.566;6.776;2023-08-06T08:46:44;7.27;;;6.33;;
9324;SDS011;4701;51.566;6.776;2023-08-06T08:49:47;9.10;;;5.77;;
9324;SDS011;4701;51.566;6.776;2023-08-06T08:52:51;6.50;;;5.87;;
9324;SDS011;4701;51.566;6.776;2023-08-06T08:55:53;5.67;;;5.17;;
9324;SDS011;4701;51.566;6.776;2023-08-06T08:58:56;7.83;;;5.20;;
